Pagina principale
METAR-TAF:

METAR-TAF

Aeroporti :

Upington, Sudafrica

latitudine: 28-24S, longitudine: 021-16E, altezza: 839 m

Osservazione

Il bollettino è stato emesso 50 minuti fa, alle 17:00 UTC
Vento 6 kt da nord/nord-ovest
Temperature 20°C
Umidità 18%
Pressione 1024 hPa
Visibilità 10 km o più
nessuna nube inferiore a 1500 m e nessun cumulonembo

METAR: FAUP 311700Z 34006KT CAVOK 20/M05 Q1024 NOSIG

Ora: 19:50 (17:50 UTC)

Previsione

Il bollettino è stato emesso 1 ora e 50 minuti fa, alle 16:00 UTC
Previsione valida dal 31 alle 18 UTC al 01 alle 18 UTC
Vento 3 kt da direzioni variabili
Visibilità 10 km o più
nessuna nube inferiore a 1500 m e nessun cumulonembo

TAF: FAUP 311600Z 3118/0118 VRB03KT CAVOK TX28/0112Z TN08/0104Z

Osservazioni e previsioni meteorologiche di più di 4000 aeroporti (messaggi METAR e TAF).

Le stazioni disponibili sono rappresentate dai dischi gialli e rossi sulla carta.

Puntare il mouse per vedere il nome della stazione.

Clicca sopra per visualizzare le osservazioni e previsioni meteorologiche.

Per cambiare la mappa : fare clic sui pulsanti verdi con una croce nera per ingrandire, il pulsante verde con un trattino per diminuire, o sulla freccia verde per le mappe adiacenti.


METAR-TAF: